sensor_id;sensor_type;location;lat;lon;timestamp;pressure;altitude;pressure_sealevel;temperature;humidity
46714;BME280;32445;51.376;10.874;2023-01-25T00:01:19;101413.84;;;3.71;59.09
46714;BME280;32445;51.376;10.874;2023-01-25T00:04:29;101416.41;;;3.71;59.25
46714;BME280;32445;51.376;10.874;2023-01-25T00:07:29;101413.78;;;3.69;58.81
46714;BME280;32445;51.376;10.874;2023-01-25T00:10:32;101416.34;;;3.69;59.13
46714;BME280;32445;51.376;10.874;2023-01-25T00:13:33;101413.72;;;3.68;58.92
46714;BME280;32445;51.376;10.874;2023-01-25T00:16:33;101418.06;;;3.69;58.84
46714;BME280;32445;51.376;10.874;2023-01-25T00:19:37;101410.34;;;3.69;59.42
46714;BME280;32445;51.376;10.874;2023-01-25T00:22:38;101407.78;;;3.69;59.32
46714;BME280;32445;51.376;10.874;2023-01-25T00:25:47;101409.47;;;3.68;59.30
46714;BME280;32445;51.376;10.874;2023-01-25T00:28:49;101410.31;;;3.67;59.59
46714;BME280;32445;51.376;10.874;2023-01-25T00:35:15;101407.69;;;3.66;59.08
46714;BME280;32445;51.376;10.874;2023-01-25T00:38:30;101403.38;;;3.64;59.24
46714;BME280;32445;51.376;10.874;2023-01-25T00:41:35;101398.28;;;3.66;59.00
46714;BME280;32445;51.376;10.874;2023-01-25T00:44:42;101385.34;;;3.63;59.21
46714;BME280;32445;51.376;10.874;2023-01-25T00:47:44;101395.66;;;3.64;59.19
46714;BME280;32445;51.376;10.874;2023-01-25T00:50:45;101391.28;;;3.62;59.05
46714;BME280;32445;51.376;10.874;2023-01-25T00:53:45;101381.84;;;3.61;59.55
46714;BME280;32445;51.376;10.874;2023-01-25T00:56:49;101382.72;;;3.61;59.60
46714;BME280;32445;51.376;10.874;2023-01-25T00:59:58;101381.84;;;3.61;59.09
46714;BME280;32445;51.376;10.874;2023-01-25T01:03:01;101383.53;;;3.60;59.39
46714;BME280;32445;51.376;10.874;2023-01-25T01:06:04;101386.97;;;3.61;59.41
46714;BME280;32445;51.376;10.874;2023-01-25T01:09:16;101391.25;;;3.60;59.61
46714;BME280;32445;51.376;10.874;2023-01-25T01:12:20;101395.56;;;3.61;59.22
46714;BME280;32445;51.376;10.874;2023-01-25T01:19:48;101390.34;;;3.58;59.21
46714;BME280;32445;51.376;10.874;2023-01-25T01:22:53;101400.47;;;3.55;58.87
46714;BME280;32445;51.376;10.874;2023-01-25T01:25:54;101396.25;;;3.56;59.18
46714;BME280;32445;51.376;10.874;2023-01-25T01:28:57;101397.91;;;3.55;59.49
46714;BME280;32445;51.376;10.874;2023-01-25T01:31:57;101396.16;;;3.53;59.47
46714;BME280;32445;51.376;10.874;2023-01-25T01:34:58;101386.69;;;3.52;59.24
46714;BME280;32445;51.376;10.874;2023-01-25T01:38:01;101387.53;;;3.52;59.08
46714;BME280;32445;51.376;10.874;2023-01-25T01:41:04;101386.63;;;3.50;59.30
46714;BME280;32445;51.376;10.874;2023-01-25T01:44:39;101384.03;;;3.49;59.29
46714;BME280;32445;51.376;10.874;2023-01-25T01:47:42;101381.50;;;3.50;59.32
46714;BME280;32445;51.376;10.874;2023-01-25T01:50:50;101378.88;;;3.49;59.40
46714;BME280;32445;51.376;10.874;2023-01-25T01:57:17;101374.56;;;3.47;60.03
46714;BME280;32445;51.376;10.874;2023-01-25T02:00:24;101374.66;;;3.51;59.65
46714;BME280;32445;51.376;10.874;2023-01-25T02:03:26;101372.97;;;3.51;59.25
46714;BME280;32445;51.376;10.874;2023-01-25T02:06:45;101369.47;;;3.49;59.71
46714;BME280;32445;51.376;10.874;2023-01-25T02:09:50;101361.78;;;3.49;59.91
46714;BME280;32445;51.376;10.874;2023-01-25T02:12:53;101361.72;;;3.47;59.18
46714;BME280;32445;51.376;10.874;2023-01-25T02:15:57;101360.03;;;3.48;59.32
46714;BME280;32445;51.376;10.874;2023-01-25T02:18:58;101355.72;;;3.47;59.57
46714;BME280;32445;51.376;10.874;2023-01-25T02:22:06;101352.28;;;3.46;59.14
46714;BME280;32445;51.376;10.874;2023-01-25T02:25:10;101351.41;;;3.46;59.03
46714;BME280;32445;51.376;10.874;2023-01-25T02:28:18;101343.63;;;3.43;59.86
46714;BME280;32445;51.376;10.874;2023-01-25T02:31:20;101339.38;;;3.45;59.32
46714;BME280;32445;51.376;10.874;2023-01-25T02:34:21;101338.44;;;3.41;59.59
46714;BME280;32445;51.376;10.874;2023-01-25T02:37:21;101335.88;;;3.41;59.84
46714;BME280;32445;51.376;10.874;2023-01-25T02:40:21;101326.38;;;3.39;59.48
46714;BME280;32445;51.376;10.874;2023-01-25T02:43:23;101321.84;;;3.32;60.17
46714;BME280;32445;51.376;10.874;2023-01-25T02:46:35;101312.31;;;3.27;60.04
46714;BME280;32445;51.376;10.874;2023-01-25T02:49:37;101314.09;;;3.30;59.65
46714;BME280;32445;51.376;10.874;2023-01-25T02:52:43;101309.84;;;3.31;60.12
46714;BME280;32445;51.376;10.874;2023-01-25T02:55:46;101301.31;;;3.32;60.17
46714;BME280;32445;51.376;10.874;2023-01-25T02:58:47;101295.41;;;3.34;60.10
46714;BME280;32445;51.376;10.874;2023-01-25T03:01:48;101290.38;;;3.37;59.54
46714;BME280;32445;51.376;10.874;2023-01-25T03:04:51;101279.25;;;3.37;59.57
46714;BME280;32445;51.376;10.874;2023-01-25T03:07:52;101274.97;;;3.37;59.10
46714;BME280;32445;51.376;10.874;2023-01-25T03:10:59;101266.47;;;3.38;59.37
46714;BME280;32445;51.376;10.874;2023-01-25T03:14:01;101266.50;;;3.40;59.03
46714;BME280;32445;51.376;10.874;2023-01-25T03:17:07;101266.47;;;3.38;59.61
46714;BME280;32445;51.376;10.874;2023-01-25T03:20:10;101264.78;;;3.40;59.20
46714;BME280;32445;51.376;10.874;2023-01-25T03:23:11;101268.19;;;3.39;59.45
46714;BME280;32445;51.376;10.874;2023-01-25T03:26:17;101275.03;;;3.39;59.78
46714;BME280;32445;51.376;10.874;2023-01-25T03:29:20;101272.41;;;3.37;59.35
46714;BME280;32445;51.376;10.874;2023-01-25T03:32:21;101270.66;;;3.36;59.74
46714;BME280;32445;51.376;10.874;2023-01-25T03:35:22;101277.50;;;3.36;59.75
46714;BME280;32445;51.376;10.874;2023-01-25T03:38:22;101268.13;;;3.38;59.54
46714;BME280;32445;51.376;10.874;2023-01-25T03:41:22;101270.69;;;3.38;59.82
46714;BME280;32445;51.376;10.874;2023-01-25T03:44:23;101269.84;;;3.37;59.66
46714;BME280;32445;51.376;10.874;2023-01-25T03:47:26;101279.28;;;3.38;59.62
46714;BME280;32445;51.376;10.874;2023-01-25T03:50:31;101268.13;;;3.38;59.47
46714;BME280;32445;51.376;10.874;2023-01-25T03:53:42;101266.47;;;3.38;59.47
46714;BME280;32445;51.376;10.874;2023-01-25T03:56:43;101259.56;;;3.37;59.54
46714;BME280;32445;51.376;10.874;2023-01-25T03:59:45;101259.63;;;3.39;59.95
46714;BME280;32445;51.376;10.874;2023-01-25T04:02:46;101263.00;;;3.38;59.39
46714;BME280;32445;51.376;10.874;2023-01-25T04:05:46;101259.56;;;3.37;59.43
46714;BME280;32445;51.376;10.874;2023-01-25T04:08:47;101255.25;;;3.36;59.42
46714;BME280;32445;51.376;10.874;2023-01-25T04:11:50;101255.25;;;3.36;59.85
46714;BME280;32445;51.376;10.874;2023-01-25T04:14:51;101247.56;;;3.36;59.84
46714;BME280;32445;51.376;10.874;2023-01-25T04:17:51;101258.72;;;3.37;59.82
46714;BME280;32445;51.376;10.874;2023-01-25T04:20:58;101249.25;;;3.36;59.54
46714;BME280;32445;51.376;10.874;2023-01-25T04:24:05;101238.09;;;3.35;59.74
46714;BME280;32445;51.376;10.874;2023-01-25T04:27:08;101239.00;;;3.36;59.76
46714;BME280;32445;51.376;10.874;2023-01-25T04:30:08;101235.53;;;3.35;59.65
46714;BME280;32445;51.376;10.874;2023-01-25T04:33:09;101231.25;;;3.34;59.35
46714;BME280;32445;51.376;10.874;2023-01-25T04:36:11;101227.00;;;3.36;59.55
46714;BME280;32445;51.376;10.874;2023-01-25T04:39:11;101224.41;;;3.35;59.52
46714;BME280;32445;51.376;10.874;2023-01-25T04:42:12;101227.00;;;3.36;59.18
46714;BME280;32445;51.376;10.874;2023-01-25T04:45:12;101221.84;;;3.35;59.74
46714;BME280;32445;51.376;10.874;2023-01-25T04:48:33;101226.97;;;3.35;59.75
46714;BME280;32445;51.376;10.874;2023-01-25T04:51:38;101224.34;;;3.33;59.41
46714;BME280;32445;51.376;10.874;2023-01-25T04:54:42;101221.78;;;3.33;59.78
46714;BME280;32445;51.376;10.874;2023-01-25T04:57:42;101222.69;;;3.35;59.34
46714;BME280;32445;51.376;10.874;2023-01-25T05:00:43;101216.69;;;3.35;59.59
46714;BME280;32445;51.376;10.874;2023-01-25T05:03:43;101217.53;;;3.34;59.61
46714;BME280;32445;51.376;10.874;2023-01-25T05:06:44;101217.53;;;3.34;59.39
46714;BME280;32445;51.376;10.874;2023-01-25T05:09:44;101212.38;;;3.34;59.11
46714;BME280;32445;51.376;10.874;2023-01-25T05:12:44;101206.34;;;3.32;59.77
46714;BME280;32445;51.376;10.874;2023-01-25T05:15:45;101208.09;;;3.33;59.22
46714;BME280;32445;51.376;10.874;2023-01-25T05:18:45;101210.66;;;3.33;59.31
46714;BME280;32445;51.376;10.874;2023-01-25T05:21:50;101212.34;;;3.32;59.33
46714;BME280;32445;51.376;10.874;2023-01-25T05:25:00;101207.22;;;3.32;59.41
46714;BME280;32445;51.376;10.874;2023-01-25T05:28:06;101209.78;;;3.32;59.23
46714;BME280;32445;51.376;10.874;2023-01-25T05:31:12;101209.78;;;3.32;59.25
46714;BME280;32445;51.376;10.874;2023-01-25T05:34:12;101208.91;;;3.32;59.36
46714;BME280;32445;51.376;10.874;2023-01-25T05:37:21;101207.22;;;3.32;59.13
46714;BME280;32445;51.376;10.874;2023-01-25T05:40:25;101203.78;;;3.32;59.87
46714;BME280;32445;51.376;10.874;2023-01-25T05:43:29;101204.59;;;3.31;59.81
46714;BME280;32445;51.376;10.874;2023-01-25T05:46:29;101205.50;;;3.31;59.28
46714;BME280;32445;51.376;10.874;2023-01-25T05:49:30;101202.06;;;3.32;59.96
46714;BME280;32445;51.376;10.874;2023-01-25T05:52:30;101200.34;;;3.31;59.46
46714;BME280;32445;51.376;10.874;2023-01-25T05:55:30;101199.41;;;3.29;59.49
46714;BME280;32445;51.376;10.874;2023-01-25T05:58:31;101200.31;;;3.29;59.25
46714;BME280;32445;51.376;10.874;2023-01-25T06:01:31;101196.84;;;3.29;59.89
46714;BME280;32445;51.376;10.874;2023-01-25T06:04:31;101201.97;;;3.29;59.22
46714;BME280;32445;51.376;10.874;2023-01-25T06:07:33;101196.00;;;3.28;59.83
46714;BME280;32445;51.376;10.874;2023-01-25T06:10:35;101194.19;;;3.26;59.58
46714;BME280;32445;51.376;10.874;2023-01-25T06:13:36;101197.63;;;3.26;59.21
46714;BME280;32445;51.376;10.874;2023-01-25T06:16:37;101192.22;;;3.17;59.55
46714;BME280;32445;51.376;10.874;2023-01-25T06:19:37;101192.03;;;3.11;59.99
46714;BME280;32445;51.376;10.874;2023-01-25T06:22:37;101192.66;;;3.04;59.97
46714;BME280;32445;51.376;10.874;2023-01-25T06:25:38;101187.31;;;2.98;60.31
46714;BME280;32445;51.376;10.874;2023-01-25T06:28:38;101195.16;;;3.02;60.16
46714;BME280;32445;51.376;10.874;2023-01-25T06:31:39;101190.19;;;3.07;60.44
46714;BME280;32445;51.376;10.874;2023-01-25T06:34:39;101194.59;;;3.11;59.64
46714;BME280;32445;51.376;10.874;2023-01-25T06:37:40;101195.22;;;3.04;59.92
46714;BME280;32445;51.376;10.874;2023-01-25T06:40:40;101194.25;;;3.00;60.22
46714;BME280;32445;51.376;10.874;2023-01-25T06:43:40;101192.50;;;2.99;60.03
46714;BME280;32445;51.376;10.874;2023-01-25T06:46:41;101185.69;;;3.00;59.55
46714;BME280;32445;51.376;10.874;2023-01-25T06:49:41;101188.16;;;2.97;60.08
46714;BME280;32445;51.376;10.874;2023-01-25T06:52:42;101177.09;;;2.99;60.02
46714;BME280;32445;51.376;10.874;2023-01-25T06:55:42;101174.59;;;3.01;60.06
46714;BME280;32445;51.376;10.874;2023-01-25T06:58:44;101179.00;;;3.05;59.42
46714;BME280;32445;51.376;10.874;2023-01-25T07:01:44;101179.94;;;3.07;59.93
46714;BME280;32445;51.376;10.874;2023-01-25T07:04:44;101179.97;;;3.08;59.77
46714;BME280;32445;51.376;10.874;2023-01-25T07:07:45;101171.38;;;3.08;59.51
46714;BME280;32445;51.376;10.874;2023-01-25T07:10:52;101169.72;;;3.08;59.77
46714;BME280;32445;51.376;10.874;2023-01-25T07:13:52;101174.00;;;3.09;59.57
46714;BME280;32445;51.376;10.874;2023-01-25T07:16:53;101171.44;;;3.09;59.25
46714;BME280;32445;51.376;10.874;2023-01-25T07:19:53;101165.47;;;3.10;59.34
46714;BME280;32445;51.376;10.874;2023-01-25T07:22:54;101170.63;;;3.10;59.75
46714;BME280;32445;51.376;10.874;2023-01-25T07:25:54;101170.63;;;3.10;59.64
46714;BME280;32445;51.376;10.874;2023-01-25T07:28:56;101160.34;;;3.10;59.11
46714;BME280;32445;51.376;10.874;2023-01-25T07:31:56;101165.47;;;3.10;59.76
46714;BME280;32445;51.376;10.874;2023-01-25T07:34:57;101158.41;;;3.03;58.93
46714;BME280;32445;51.376;10.874;2023-01-25T07:37:57;101156.59;;;2.99;59.56
46714;BME280;32445;51.376;10.874;2023-01-25T07:40:58;101147.97;;;2.97;59.58
46714;BME280;32445;51.376;10.874;2023-01-25T07:43:58;101149.72;;;2.98;59.41
46714;BME280;32445;51.376;10.874;2023-01-25T07:46:58;101142.91;;;2.99;59.90
46714;BME280;32445;51.376;10.874;2023-01-25T07:49:59;101140.31;;;2.99;59.80
46714;BME280;32445;51.376;10.874;2023-01-25T07:52:59;101136.72;;;2.93;59.68
46714;BME280;32445;51.376;10.874;2023-01-25T07:55:59;101134.03;;;2.89;59.49
46714;BME280;32445;51.376;10.874;2023-01-25T07:59:00;101131.28;;;2.83;60.27
46714;BME280;32445;51.376;10.874;2023-01-25T08:02:03;101138.22;;;2.85;60.13
46714;BME280;32445;51.376;10.874;2023-01-25T08:05:04;101135.66;;;2.85;60.22
46714;BME280;32445;51.376;10.874;2023-01-25T08:08:05;101133.13;;;2.87;59.85
46714;BME280;32445;51.376;10.874;2023-01-25T08:11:18;101140.97;;;2.91;60.00
46714;BME280;32445;51.376;10.874;2023-01-25T08:14:19;101136.84;;;2.97;59.93
46714;BME280;32445;51.376;10.874;2023-01-25T08:17:20;101135.75;;;2.88;59.87
46714;BME280;32445;51.376;10.874;2023-01-25T08:20:20;101132.25;;;2.86;60.08
46714;BME280;32445;51.376;10.874;2023-01-25T08:23:21;101133.13;;;2.87;60.17
46714;BME280;32445;51.376;10.874;2023-01-25T08:26:22;101132.31;;;2.89;59.83
46714;BME280;32445;51.376;10.874;2023-01-25T08:29:23;101133.19;;;2.88;59.99
46714;BME280;32445;51.376;10.874;2023-01-25T08:32:23;101128.00;;;2.87;60.14
46714;BME280;32445;51.376;10.874;2023-01-25T08:35:24;101132.31;;;2.89;60.28
46714;BME280;32445;51.376;10.874;2023-01-25T08:38:24;101134.13;;;2.92;60.11
46714;BME280;32445;51.376;10.874;2023-01-25T08:41:25;101140.09;;;2.91;60.41
46714;BME280;32445;51.376;10.874;2023-01-25T08:44:26;101129.03;;;2.93;60.26
46714;BME280;32445;51.376;10.874;2023-01-25T08:47:26;101126.53;;;2.95;59.63
46714;BME280;32445;51.376;10.874;2023-01-25T08:50:27;101116.34;;;2.97;59.95
46714;BME280;32445;51.376;10.874;2023-01-25T08:53:28;101117.25;;;2.99;59.68
46714;BME280;32445;51.376;10.874;2023-01-25T08:56:29;101121.59;;;3.01;59.37
46714;BME280;32445;51.376;10.874;2023-01-25T08:59:29;101121.66;;;3.03;60.01
46714;BME280;32445;51.376;10.874;2023-01-25T09:02:30;101119.13;;;3.04;59.83
46714;BME280;32445;51.376;10.874;2023-01-25T09:05:32;101122.53;;;3.05;59.92
46714;BME280;32445;51.376;10.874;2023-01-25T09:08:34;101117.47;;;3.06;59.66
46714;BME280;32445;51.376;10.874;2023-01-25T09:11:34;101113.22;;;3.07;59.89
46714;BME280;32445;51.376;10.874;2023-01-25T09:14:37;101110.69;;;3.08;59.81
46714;BME280;32445;51.376;10.874;2023-01-25T09:17:39;101108.22;;;3.11;59.75
46714;BME280;32445;51.376;10.874;2023-01-25T09:20:39;101099.72;;;3.13;59.59
46714;BME280;32445;51.376;10.874;2023-01-25T09:23:40;101099.72;;;3.13;59.75
46714;BME280;32445;51.376;10.874;2023-01-25T09:26:43;101092.88;;;3.13;59.56
46714;BME280;32445;51.376;10.874;2023-01-25T09:29:43;101100.56;;;3.13;59.64
46714;BME280;32445;51.376;10.874;2023-01-25T09:32:44;101092.00;;;3.13;59.33
46714;BME280;32445;51.376;10.874;2023-01-25T09:35:47;101087.78;;;3.15;59.83
46714;BME280;32445;51.376;10.874;2023-01-25T09:38:48;101092.09;;;3.16;59.88
46714;BME280;32445;51.376;10.874;2023-01-25T09:42:13;101082.69;;;3.16;59.77
46714;BME280;32445;51.376;10.874;2023-01-25T09:45:34;101086.97;;;3.16;59.94
46714;BME280;32445;51.376;10.874;2023-01-25T09:48:42;101084.47;;;3.19;59.22
46714;BME280;32445;51.376;10.874;2023-01-25T09:55:25;101071.56;;;3.16;59.64
46714;BME280;32445;51.376;10.874;2023-01-25T09:58:31;101063.06;;;3.17;59.97
46714;BME280;32445;51.376;10.874;2023-01-25T10:04:46;101070.75;;;3.17;59.70
46714;BME280;32445;51.376;10.874;2023-01-25T10:07:59;101057.81;;;3.14;59.83
46714;BME280;32445;51.376;10.874;2023-01-25T10:11:15;101055.88;;;3.06;59.44
46714;BME280;32445;51.376;10.874;2023-01-25T10:14:18;101048.09;;;3.03;60.32
46714;BME280;32445;51.376;10.874;2023-01-25T10:17:38;101046.31;;;3.01;60.31
46714;BME280;32445;51.376;10.874;2023-01-25T10:20:44;101045.50;;;3.02;60.02
46714;BME280;32445;51.376;10.874;2023-01-25T10:30:35;101032.63;;;3.00;59.79
46714;BME280;32445;51.376;10.874;2023-01-25T10:33:42;101029.03;;;2.95;60.44
46714;BME280;32445;51.376;10.874;2023-01-25T10:36:56;101021.47;;;2.98;60.06
46714;BME280;32445;51.376;10.874;2023-01-25T10:40:03;101014.78;;;3.05;59.72
46714;BME280;32445;51.376;10.874;2023-01-25T10:43:20;101015.03;;;3.13;59.66
46714;BME280;32445;51.376;10.874;2023-01-25T10:46:24;100996.34;;;3.17;60.06
46714;BME280;32445;51.376;10.874;2023-01-25T10:52:34;100988.81;;;3.23;59.37
46714;BME280;32445;51.376;10.874;2023-01-25T10:55:53;100987.88;;;3.21;59.78
46714;BME280;32445;51.376;10.874;2023-01-25T10:59:24;100983.63;;;3.21;60.12
46714;BME280;32445;51.376;10.874;2023-01-25T11:02:39;100985.34;;;3.22;59.40
46714;BME280;32445;51.376;10.874;2023-01-25T11:05:54;100975.06;;;3.22;59.44
46714;BME280;32445;51.376;10.874;2023-01-25T11:08:55;100970.59;;;3.15;59.73
46714;BME280;32445;51.376;10.874;2023-01-25T11:12:03;100966.25;;;3.11;60.11
46714;BME280;32445;51.376;10.874;2023-01-25T11:15:22;100952.50;;;3.09;60.18
46714;BME280;32445;51.376;10.874;2023-01-25T11:18:26;100953.25;;;3.06;59.89
46714;BME280;32445;51.376;10.874;2023-01-25T11:21:34;100939.38;;;2.98;59.88
46714;BME280;32445;51.376;10.874;2023-01-25T11:24:35;100941.09;;;2.99;60.13
46714;BME280;32445;51.376;10.874;2023-01-25T11:27:35;100933.28;;;2.94;60.21
46714;BME280;32445;51.376;10.874;2023-01-25T11:30:35;100920.28;;;2.88;60.46
46714;BME280;32445;51.376;10.874;2023-01-25T11:33:36;100919.56;;;2.92;60.09
46714;BME280;32445;51.376;10.874;2023-01-25T11:50:17;100888.06;;;2.98;59.74
46714;BME280;32445;51.376;10.874;2023-01-25T11:53:35;100877.59;;;2.90;59.75
46714;BME280;32445;51.376;10.874;2023-01-25T11:57:08;100874.22;;;2.91;60.13
46714;BME280;32445;51.376;10.874;2023-01-25T12:10:02;100859.69;;;2.92;59.50
46714;BME280;32445;51.376;10.874;2023-01-25T12:16:59;100849.03;;;3.10;59.46
46714;BME280;32445;51.376;10.874;2023-01-25T12:20:26;100840.38;;;3.06;59.78
46714;BME280;32445;51.376;10.874;2023-01-25T12:23:54;100836.84;;;3.01;59.46
46714;BME280;32445;51.376;10.874;2023-01-25T12:30:23;100825.03;;;3.08;59.25
46714;BME280;32445;51.376;10.874;2023-01-25T12:33:57;100816.66;;;3.15;59.03
46714;BME280;32445;51.376;10.874;2023-01-25T12:36:59;100816.16;;;3.28;59.19
46714;BME280;32445;51.376;10.874;2023-01-25T12:40:17;100811.88;;;3.29;58.92
46714;BME280;32445;51.376;10.874;2023-01-25T12:43:29;100808.06;;;3.13;58.95
46714;BME280;32445;51.376;10.874;2023-01-25T12:53:31;100783.44;;;3.20;58.54
46714;BME280;32445;51.376;10.874;2023-01-25T12:57:02;100781.78;;;3.23;58.62
46714;BME280;32445;51.376;10.874;2023-01-25T13:03:34;100770.59;;;3.20;59.09
46714;BME280;32445;51.376;10.874;2023-01-25T13:06:50;100765.50;;;3.21;58.45
46714;BME280;32445;51.376;10.874;2023-01-25T13:10:04;100773.09;;;3.17;59.17
46714;BME280;32445;51.376;10.874;2023-01-25T13:13:35;100756.72;;;3.11;59.49
46714;BME280;32445;51.376;10.874;2023-01-25T13:16:39;100764.41;;;3.11;58.68
46714;BME280;32445;51.376;10.874;2023-01-25T13:19:41;100759.38;;;3.16;58.99
46714;BME280;32445;51.376;10.874;2023-01-25T13:25:42;100737.06;;;3.12;59.33
46714;BME280;32445;51.376;10.874;2023-01-25T13:28:43;100720.72;;;3.08;59.43
46714;BME280;32445;51.376;10.874;2023-01-25T13:31:45;100725.69;;;3.02;58.84
46714;BME280;32445;51.376;10.874;2023-01-25T13:41:19;100702.09;;;3.16;58.97
46714;BME280;32445;51.376;10.874;2023-01-25T13:44:24;100701.34;;;3.21;58.36
46714;BME280;32445;51.376;10.874;2023-01-25T13:47:34;100692.91;;;3.25;58.16
46714;BME280;32445;51.376;10.874;2023-01-25T13:50:38;100686.94;;;3.28;58.76
46714;BME280;32445;51.376;10.874;2023-01-25T13:53:54;100682.69;;;3.28;57.96
46714;BME280;32445;51.376;10.874;2023-01-25T13:57:12;100678.41;;;3.27;58.22
46714;BME280;32445;51.376;10.874;2023-01-25T14:00:14;100684.31;;;3.25;58.18
46714;BME280;32445;51.376;10.874;2023-01-25T14:03:15;100679.75;;;3.11;58.33
46714;BME280;32445;51.376;10.874;2023-01-25T14:06:18;100672.47;;;2.93;59.10
46714;BME280;32445;51.376;10.874;2023-01-25T14:09:19;100670.72;;;2.91;59.01
46714;BME280;32445;51.376;10.874;2023-01-25T14:12:32;100678.50;;;2.94;59.20
46714;BME280;32445;51.376;10.874;2023-01-25T14:15:35;100686.94;;;2.90;59.19
46714;BME280;32445;51.376;10.874;2023-01-25T14:18:35;100668.06;;;2.88;59.25
46714;BME280;32445;51.376;10.874;2023-01-25T14:21:38;100673.00;;;2.79;59.22
46714;BME280;32445;51.376;10.874;2023-01-25T14:24:39;100666.91;;;2.75;59.67
46714;BME280;32445;51.376;10.874;2023-01-25T14:27:52;100661.94;;;2.81;59.46
46714;BME280;32445;51.376;10.874;2023-01-25T14:30:54;100656.13;;;2.88;58.98
46714;BME280;32445;51.376;10.874;2023-01-25T14:33:55;100651.00;;;2.88;58.95
46714;BME280;32445;51.376;10.874;2023-01-25T14:37:09;100645.03;;;2.89;59.05
46714;BME280;32445;51.376;10.874;2023-01-25T14:40:15;100645.09;;;2.91;58.55
46714;BME280;32445;51.376;10.874;2023-01-25T14:43:21;100644.22;;;2.92;59.01
46714;BME280;32445;51.376;10.874;2023-01-25T14:46:25;100627.22;;;2.96;58.78
46714;BME280;32445;51.376;10.874;2023-01-25T14:49:26;100617.72;;;2.91;58.79
46714;BME280;32445;51.376;10.874;2023-01-25T14:52:26;100619.50;;;2.94;58.68
46714;BME280;32445;51.376;10.874;2023-01-25T14:55:27;100617.03;;;2.99;58.50
46714;BME280;32445;51.376;10.874;2023-01-25T14:58:27;100616.28;;;3.03;58.55
46714;BME280;32445;51.376;10.874;2023-01-25T15:01:37;100612.78;;;3.01;58.71
46714;BME280;32445;51.376;10.874;2023-01-25T15:04:38;100604.25;;;3.00;58.12
46714;BME280;32445;51.376;10.874;2023-01-25T15:07:49;100595.72;;;3.01;58.49
46714;BME280;32445;51.376;10.874;2023-01-25T15:10:52;100588.06;;;3.03;58.14
46714;BME280;32445;51.376;10.874;2023-01-25T15:14:00;100593.22;;;3.04;58.45
46714;BME280;32445;51.376;10.874;2023-01-25T15:17:01;100588.16;;;3.07;58.36
46714;BME280;32445;51.376;10.874;2023-01-25T15:20:01;100589.91;;;3.08;58.31
46714;BME280;32445;51.376;10.874;2023-01-25T15:23:25;100588.16;;;3.07;58.26
46714;BME280;32445;51.376;10.874;2023-01-25T15:26:28;100590.78;;;3.10;58.17
46714;BME280;32445;51.376;10.874;2023-01-25T15:29:29;100584.78;;;3.10;58.62
46714;BME280;32445;51.376;10.874;2023-01-25T15:32:29;100576.13;;;3.05;58.50
46714;BME280;32445;51.376;10.874;2023-01-25T15:35:29;100582.13;;;3.05;58.94
46714;BME280;32445;51.376;10.874;2023-01-25T15:38:30;100577.00;;;3.05;58.10
46714;BME280;32445;51.376;10.874;2023-01-25T15:41:30;100574.34;;;3.02;58.12
46714;BME280;32445;51.376;10.874;2023-01-25T15:44:31;100573.38;;;2.96;58.64
46714;BME280;32445;51.376;10.874;2023-01-25T15:47:31;100568.16;;;2.91;58.22
46714;BME280;32445;51.376;10.874;2023-01-25T15:50:32;100562.88;;;2.86;58.99
46714;BME280;32445;51.376;10.874;2023-01-25T15:53:33;100559.34;;;2.80;58.91
46714;BME280;32445;51.376;10.874;2023-01-25T15:56:35;100560.84;;;2.71;59.26
46714;BME280;32445;51.376;10.874;2023-01-25T15:59:36;100560.78;;;2.68;59.25
46714;BME280;32445;51.376;10.874;2023-01-25T16:02:37;100557.47;;;2.72;58.83
46714;BME280;32445;51.376;10.874;2023-01-25T16:05:37;100551.50;;;2.73;58.68
46714;BME280;32445;51.376;10.874;2023-01-25T16:08:38;100553.25;;;2.76;58.38
46714;BME280;32445;51.376;10.874;2023-01-25T16:11:38;100556.66;;;2.75;58.40
46714;BME280;32445;51.376;10.874;2023-01-25T16:14:38;100542.09;;;2.72;58.40
46714;BME280;32445;51.376;10.874;2023-01-25T16:17:42;100544.63;;;2.71;58.63
46714;BME280;32445;51.376;10.874;2023-01-25T16:20:42;100545.38;;;2.67;58.83
46714;BME280;32445;51.376;10.874;2023-01-25T16:23:43;100538.50;;;2.66;58.34
46714;BME280;32445;51.376;10.874;2023-01-25T16:26:47;100534.28;;;2.68;59.01
46714;BME280;32445;51.376;10.874;2023-01-25T16:29:50;100530.88;;;2.69;58.65
46714;BME280;32445;51.376;10.874;2023-01-25T16:32:52;100539.28;;;2.62;58.48
46714;BME280;32445;51.376;10.874;2023-01-25T16:36:09;100531.25;;;2.48;58.83
46714;BME280;32445;51.376;10.874;2023-01-25T16:39:29;100520.97;;;2.46;58.82
46714;BME280;32445;51.376;10.874;2023-01-25T16:42:31;100518.53;;;2.51;58.85
46714;BME280;32445;51.376;10.874;2023-01-25T16:45:31;100516.84;;;2.53;58.77
46714;BME280;32445;51.376;10.874;2023-01-25T16:48:32;100523.78;;;2.57;58.44
46714;BME280;32445;51.376;10.874;2023-01-25T16:51:32;100518.69;;;2.58;58.45
46714;BME280;32445;51.376;10.874;2023-01-25T16:54:35;100517.00;;;2.59;58.11
46714;BME280;32445;51.376;10.874;2023-01-25T16:57:37;100511.84;;;2.59;58.32
46714;BME280;32445;51.376;10.874;2023-01-25T17:00:37;100512.66;;;2.56;58.20
46714;BME280;32445;51.376;10.874;2023-01-25T17:03:38;100514.31;;;2.54;58.14
46714;BME280;32445;51.376;10.874;2023-01-25T17:06:41;100517.66;;;2.50;58.25
46714;BME280;32445;51.376;10.874;2023-01-25T17:09:42;100508.06;;;2.41;58.70
46714;BME280;32445;51.376;10.874;2023-01-25T17:12:45;100513.09;;;2.37;58.84
46714;BME280;32445;51.376;10.874;2023-01-25T17:15:48;100508.75;;;2.34;58.45
46714;BME280;32445;51.376;10.874;2023-01-25T17:18:57;100504.44;;;2.33;58.62
46714;BME280;32445;51.376;10.874;2023-01-25T17:21:59;100504.44;;;2.33;58.62